sensor_id;sensor_type;location;lat;lon;timestamp;P1;durP1;ratioP1;P2;durP2;ratioP2
5682;SDS011;2864;49.220;8.654;2023-05-10T00:00:33;6.00;;;2.37;;
5682;SDS011;2864;49.220;8.654;2023-05-10T00:02:59;2.70;;;2.47;;
5682;SDS011;2864;49.220;8.654;2023-05-10T00:05:25;3.17;;;2.60;;
5682;SDS011;2864;49.220;8.654;2023-05-10T00:07:51;3.10;;;2.40;;
5682;SDS011;2864;49.220;8.654;2023-05-10T00:10:17;9.20;;;2.53;;
5682;SDS011;2864;49.220;8.654;2023-05-10T00:12:43;2.60;;;2.40;;
5682;SDS011;2864;49.220;8.654;2023-05-10T00:15:10;2.77;;;2.33;;
5682;SDS011;2864;49.220;8.654;2023-05-10T00:17:36;2.30;;;2.10;;
5682;SDS011;2864;49.220;8.654;2023-05-10T00:20:02;3.13;;;2.23;;
5682;SDS011;2864;49.220;8.654;2023-05-10T00:22:29;3.10;;;2.43;;
5682;SDS011;2864;49.220;8.654;2023-05-10T00:24:56;2.50;;;2.30;;
5682;SDS011;2864;49.220;8.654;2023-05-10T00:27:22;3.23;;;2.30;;
5682;SDS011;2864;49.220;8.654;2023-05-10T00:29:48;2.47;;;2.27;;
5682;SDS011;2864;49.220;8.654;2023-05-10T00:32:14;4.80;;;2.53;;
5682;SDS011;2864;49.220;8.654;2023-05-10T00:34:40;2.47;;;2.27;;
5682;SDS011;2864;49.220;8.654;2023-05-10T00:37:06;4.43;;;2.10;;
5682;SDS011;2864;49.220;8.654;2023-05-10T00:39:32;2.97;;;2.27;;
5682;SDS011;2864;49.220;8.654;2023-05-10T00:41:58;2.40;;;2.10;;
5682;SDS011;2864;49.220;8.654;2023-05-10T00:44:25;2.00;;;1.80;;
5682;SDS011;2864;49.220;8.654;2023-05-10T00:46:51;2.00;;;1.83;;
5682;SDS011;2864;49.220;8.654;2023-05-10T00:49:17;1.90;;;1.80;;
5682;SDS011;2864;49.220;8.654;2023-05-10T00:51:43;2.00;;;1.70;;
5682;SDS011;2864;49.220;8.654;2023-05-10T00:54:11;3.47;;;2.00;;
5682;SDS011;2864;49.220;8.654;2023-05-10T00:56:37;4.40;;;1.97;;
5682;SDS011;2864;49.220;8.654;2023-05-10T00:59:03;2.67;;;2.40;;
5682;SDS011;2864;49.220;8.654;2023-05-10T01:01:29;5.73;;;2.00;;
5682;SDS011;2864;49.220;8.654;2023-05-10T01:03:56;2.57;;;2.10;;
5682;SDS011;2864;49.220;8.654;2023-05-10T01:06:22;2.20;;;2.00;;
5682;SDS011;2864;49.220;8.654;2023-05-10T01:08:48;5.00;;;2.20;;
5682;SDS011;2864;49.220;8.654;2023-05-10T01:11:14;3.03;;;2.10;;
5682;SDS011;2864;49.220;8.654;2023-05-10T01:13:41;2.90;;;2.10;;
5682;SDS011;2864;49.220;8.654;2023-05-10T01:16:08;3.50;;;2.10;;
5682;SDS011;2864;49.220;8.654;2023-05-10T01:18:38;2.30;;;2.10;;
5682;SDS011;2864;49.220;8.654;2023-05-10T01:24:05;5.33;;;2.30;;
5682;SDS011;2864;49.220;8.654;2023-05-10T01:26:49;1.93;;;1.83;;
5682;SDS011;2864;49.220;8.654;2023-05-10T01:40:39;1.90;;;1.80;;
5682;SDS011;2864;49.220;8.654;2023-05-10T01:43:17;2.83;;;2.20;;
5682;SDS011;2864;49.220;8.654;2023-05-10T01:51:46;6.00;;;2.30;;
5682;SDS011;2864;49.220;8.654;2023-05-10T01:54:16;3.00;;;2.70;;
5682;SDS011;2864;49.220;8.654;2023-05-10T01:56:44;2.93;;;2.70;;
5682;SDS011;2864;49.220;8.654;2023-05-10T01:59:13;3.30;;;3.00;;
5682;SDS011;2864;49.220;8.654;2023-05-10T02:01:42;3.80;;;3.40;;
5682;SDS011;2864;49.220;8.654;2023-05-10T02:04:09;3.23;;;2.93;;
5682;SDS011;2864;49.220;8.654;2023-05-10T02:06:38;4.03;;;3.20;;
5682;SDS011;2864;49.220;8.654;2023-05-10T02:09:04;3.90;;;3.60;;
5682;SDS011;2864;49.220;8.654;2023-05-10T02:11:31;3.63;;;3.33;;
5682;SDS011;2864;49.220;8.654;2023-05-10T02:13:57;6.33;;;3.67;;
5682;SDS011;2864;49.220;8.654;2023-05-10T02:16:24;4.03;;;3.73;;
5682;SDS011;2864;49.220;8.654;2023-05-10T02:18:52;3.90;;;3.60;;
5682;SDS011;2864;49.220;8.654;2023-05-10T02:21:19;6.17;;;3.90;;
5682;SDS011;2864;49.220;8.654;2023-05-10T02:23:46;5.23;;;4.17;;
5682;SDS011;2864;49.220;8.654;2023-05-10T02:26:12;4.07;;;3.70;;
5682;SDS011;2864;49.220;8.654;2023-05-10T02:28:39;4.27;;;3.80;;
5682;SDS011;2864;49.220;8.654;2023-05-10T02:31:07;5.97;;;3.67;;
5682;SDS011;2864;49.220;8.654;2023-05-10T02:33:35;5.07;;;4.57;;
5682;SDS011;2864;49.220;8.654;2023-05-10T02:36:02;5.77;;;4.00;;
5682;SDS011;2864;49.220;8.654;2023-05-10T02:38:29;3.70;;;3.40;;
5682;SDS011;2864;49.220;8.654;2023-05-10T02:40:56;4.30;;;3.90;;
5682;SDS011;2864;49.220;8.654;2023-05-10T02:43:22;6.10;;;3.67;;
5682;SDS011;2864;49.220;8.654;2023-05-10T02:45:49;4.40;;;4.00;;
5682;SDS011;2864;49.220;8.654;2023-05-10T02:48:15;4.70;;;3.90;;
5682;SDS011;2864;49.220;8.654;2023-05-10T02:50:43;8.43;;;4.73;;
5682;SDS011;2864;49.220;8.654;2023-05-10T02:53:10;4.23;;;3.87;;
5682;SDS011;2864;49.220;8.654;2023-05-10T02:55:38;5.47;;;3.90;;
5682;SDS011;2864;49.220;8.654;2023-05-10T02:58:05;4.70;;;4.20;;
5682;SDS011;2864;49.220;8.654;2023-05-10T03:00:31;6.30;;;3.70;;
5682;SDS011;2864;49.220;8.654;2023-05-10T03:06:19;3.77;;;3.47;;
5682;SDS011;2864;49.220;8.654;2023-05-10T03:08:45;4.23;;;3.80;;
5682;SDS011;2864;49.220;8.654;2023-05-10T03:11:55;4.97;;;3.70;;
5682;SDS011;2864;49.220;8.654;2023-05-10T03:14:37;3.97;;;3.63;;
5682;SDS011;2864;49.220;8.654;2023-05-10T03:17:10;4.40;;;3.70;;
5682;SDS011;2864;49.220;8.654;2023-05-10T03:19:56;4.47;;;3.80;;
5682;SDS011;2864;49.220;8.654;2023-05-10T03:22:32;6.33;;;4.13;;
5682;SDS011;2864;49.220;8.654;2023-05-10T03:25:05;5.90;;;4.20;;
5682;SDS011;2864;49.220;8.654;2023-05-10T03:27:32;5.63;;;4.03;;
5682;SDS011;2864;49.220;8.654;2023-05-10T03:29:58;6.07;;;3.97;;
5682;SDS011;2864;49.220;8.654;2023-05-10T03:32:24;5.70;;;4.60;;
5682;SDS011;2864;49.220;8.654;2023-05-10T03:34:52;4.83;;;4.43;;
5682;SDS011;2864;49.220;8.654;2023-05-10T03:37:18;5.40;;;4.90;;
5682;SDS011;2864;49.220;8.654;2023-05-10T03:39:44;4.80;;;4.30;;
5682;SDS011;2864;49.220;8.654;2023-05-10T03:42:10;7.90;;;4.83;;
5682;SDS011;2864;49.220;8.654;2023-05-10T03:44:37;4.90;;;4.40;;
5682;SDS011;2864;49.220;8.654;2023-05-10T03:47:03;5.47;;;4.90;;
5682;SDS011;2864;49.220;8.654;2023-05-10T03:49:29;7.13;;;5.10;;
5682;SDS011;2864;49.220;8.654;2023-05-10T03:51:55;6.10;;;4.73;;
5682;SDS011;2864;49.220;8.654;2023-05-10T03:54:21;6.03;;;5.33;;
5682;SDS011;2864;49.220;8.654;2023-05-10T03:56:47;6.30;;;5.50;;
5682;SDS011;2864;49.220;8.654;2023-05-10T03:59:13;6.10;;;5.50;;
5682;SDS011;2864;49.220;8.654;2023-05-10T04:01:39;10.23;;;6.03;;
5682;SDS011;2864;49.220;8.654;2023-05-10T04:04:05;6.03;;;5.43;;
5682;SDS011;2864;49.220;8.654;2023-05-10T04:06:31;7.50;;;6.80;;
5682;SDS011;2864;49.220;8.654;2023-05-10T04:08:57;7.70;;;6.80;;
5682;SDS011;2864;49.220;8.654;2023-05-10T04:11:29;7.30;;;6.60;;
5682;SDS011;2864;49.220;8.654;2023-05-10T04:13:55;9.37;;;6.90;;
5682;SDS011;2864;49.220;8.654;2023-05-10T04:16:21;9.33;;;7.30;;
5682;SDS011;2864;49.220;8.654;2023-05-10T04:18:47;9.53;;;6.77;;
5682;SDS011;2864;49.220;8.654;2023-05-10T04:21:13;8.73;;;7.70;;
5682;SDS011;2864;49.220;8.654;2023-05-10T04:23:39;8.43;;;7.57;;
5682;SDS011;2864;49.220;8.654;2023-05-10T04:26:06;9.03;;;7.47;;
5682;SDS011;2864;49.220;8.654;2023-05-10T04:28:32;10.20;;;7.93;;
5682;SDS011;2864;49.220;8.654;2023-05-10T04:31:05;8.43;;;7.57;;
5682;SDS011;2864;49.220;8.654;2023-05-10T04:33:31;10.17;;;8.37;;
5682;SDS011;2864;49.220;8.654;2023-05-10T04:35:57;9.03;;;8.13;;
5682;SDS011;2864;49.220;8.654;2023-05-10T04:38:24;8.20;;;7.40;;
5682;SDS011;2864;49.220;8.654;2023-05-10T04:40:50;8.93;;;7.73;;
5682;SDS011;2864;49.220;8.654;2023-05-10T04:43:16;8.07;;;7.27;;
5682;SDS011;2864;49.220;8.654;2023-05-10T04:45:42;9.03;;;8.10;;
5682;SDS011;2864;49.220;8.654;2023-05-10T04:48:08;8.37;;;7.47;;
5682;SDS011;2864;49.220;8.654;2023-05-10T04:50:34;9.13;;;7.70;;
5682;SDS011;2864;49.220;8.654;2023-05-10T04:53:01;7.93;;;7.20;;
5682;SDS011;2864;49.220;8.654;2023-05-10T04:55:27;7.77;;;6.97;;
5682;SDS011;2864;49.220;8.654;2023-05-10T04:57:53;9.30;;;8.27;;
5682;SDS011;2864;49.220;8.654;2023-05-10T05:00:22;8.63;;;7.23;;
5682;SDS011;2864;49.220;8.654;2023-05-10T05:02:48;8.67;;;7.37;;
5682;SDS011;2864;49.220;8.654;2023-05-10T05:05:14;8.43;;;6.90;;
5682;SDS011;2864;49.220;8.654;2023-05-10T05:07:40;9.47;;;7.23;;
5682;SDS011;2864;49.220;8.654;2023-05-10T05:10:07;9.97;;;7.40;;
5682;SDS011;2864;49.220;8.654;2023-05-10T05:12:34;8.10;;;7.30;;
5682;SDS011;2864;49.220;8.654;2023-05-10T05:15:00;11.20;;;6.83;;
5682;SDS011;2864;49.220;8.654;2023-05-10T05:17:26;7.50;;;6.37;;
5682;SDS011;2864;49.220;8.654;2023-05-10T05:19:52;8.73;;;7.43;;
5682;SDS011;2864;49.220;8.654;2023-05-10T05:22:17;9.37;;;7.43;;
5682;SDS011;2864;49.220;8.654;2023-05-10T05:24:52;7.07;;;6.37;;
5682;SDS011;2864;49.220;8.654;2023-05-10T05:27:18;8.27;;;7.00;;
5682;SDS011;2864;49.220;8.654;2023-05-10T05:29:46;7.13;;;6.43;;
5682;SDS011;2864;49.220;8.654;2023-05-10T05:32:11;7.43;;;6.73;;
5682;SDS011;2864;49.220;8.654;2023-05-10T05:34:37;8.03;;;6.77;;
5682;SDS011;2864;49.220;8.654;2023-05-10T05:37:04;8.10;;;6.47;;
5682;SDS011;2864;49.220;8.654;2023-05-10T05:39:30;7.53;;;6.43;;
5682;SDS011;2864;49.220;8.654;2023-05-10T05:41:56;6.83;;;6.13;;
5682;SDS011;2864;49.220;8.654;2023-05-10T05:44:23;7.77;;;6.67;;
5682;SDS011;2864;49.220;8.654;2023-05-10T05:46:49;7.53;;;6.53;;
5682;SDS011;2864;49.220;8.654;2023-05-10T05:49:15;7.37;;;6.60;;
5682;SDS011;2864;49.220;8.654;2023-05-10T05:51:41;10.53;;;6.33;;
5682;SDS011;2864;49.220;8.654;2023-05-10T05:54:08;7.23;;;6.53;;
5682;SDS011;2864;49.220;8.654;2023-05-10T05:56:33;6.50;;;5.80;;
5682;SDS011;2864;49.220;8.654;2023-05-10T05:58:59;8.33;;;6.10;;
5682;SDS011;2864;49.220;8.654;2023-05-10T06:01:25;6.93;;;5.57;;
5682;SDS011;2864;49.220;8.654;2023-05-10T06:03:51;7.53;;;5.43;;
5682;SDS011;2864;49.220;8.654;2023-05-10T06:06:18;8.00;;;5.20;;
5682;SDS011;2864;49.220;8.654;2023-05-10T06:08:44;5.77;;;5.13;;
5682;SDS011;2864;49.220;8.654;2023-05-10T06:11:10;5.70;;;5.03;;
5682;SDS011;2864;49.220;8.654;2023-05-10T06:13:36;5.07;;;4.57;;
5682;SDS011;2864;49.220;8.654;2023-05-10T06:16:02;5.23;;;4.73;;
5682;SDS011;2864;49.220;8.654;2023-05-10T06:18:28;5.60;;;5.00;;
5682;SDS011;2864;49.220;8.654;2023-05-10T06:20:54;7.47;;;5.07;;
5682;SDS011;2864;49.220;8.654;2023-05-10T06:23:20;8.47;;;5.77;;
5682;SDS011;2864;49.220;8.654;2023-05-10T06:25:47;5.93;;;4.77;;
5682;SDS011;2864;49.220;8.654;2023-05-10T06:28:13;6.00;;;5.03;;
5682;SDS011;2864;49.220;8.654;2023-05-10T06:30:39;5.17;;;4.67;;
5682;SDS011;2864;49.220;8.654;2023-05-10T06:33:05;6.73;;;5.37;;
5682;SDS011;2864;49.220;8.654;2023-05-10T06:35:31;6.67;;;4.47;;
5682;SDS011;2864;49.220;8.654;2023-05-10T06:37:58;6.10;;;5.03;;
5682;SDS011;2864;49.220;8.654;2023-05-10T06:40:24;7.90;;;5.23;;
5682;SDS011;2864;49.220;8.654;2023-05-10T06:42:50;5.17;;;4.60;;
5682;SDS011;2864;49.220;8.654;2023-05-10T06:45:17;5.13;;;4.70;;
5682;SDS011;2864;49.220;8.654;2023-05-10T06:47:43;5.20;;;4.70;;
5682;SDS011;2864;49.220;8.654;2023-05-10T06:50:09;7.20;;;4.90;;
5682;SDS011;2864;49.220;8.654;2023-05-10T06:52:36;6.40;;;5.00;;
5682;SDS011;2864;49.220;8.654;2023-05-10T06:55:03;5.00;;;4.50;;
5682;SDS011;2864;49.220;8.654;2023-05-10T06:57:29;6.90;;;4.10;;
5682;SDS011;2864;49.220;8.654;2023-05-10T06:59:55;4.77;;;4.07;;
5682;SDS011;2864;49.220;8.654;2023-05-10T07:02:21;4.20;;;3.80;;
5682;SDS011;2864;49.220;8.654;2023-05-10T07:04:47;4.03;;;3.63;;
5682;SDS011;2864;49.220;8.654;2023-05-10T07:07:14;3.97;;;3.57;;
5682;SDS011;2864;49.220;8.654;2023-05-10T07:09:40;4.70;;;3.70;;
5682;SDS011;2864;49.220;8.654;2023-05-10T07:12:07;3.90;;;3.40;;
5682;SDS011;2864;49.220;8.654;2023-05-10T07:14:33;3.17;;;2.87;;
5682;SDS011;2864;49.220;8.654;2023-05-10T07:16:58;5.63;;;3.23;;
5682;SDS011;2864;49.220;8.654;2023-05-10T07:19:24;3.60;;;3.30;;
5682;SDS011;2864;49.220;8.654;2023-05-10T07:21:50;3.40;;;3.10;;
5682;SDS011;2864;49.220;8.654;2023-05-10T07:24:16;4.20;;;3.53;;
5682;SDS011;2864;49.220;8.654;2023-05-10T07:26:42;4.57;;;3.10;;
5682;SDS011;2864;49.220;8.654;2023-05-10T07:29:08;3.97;;;3.10;;
5682;SDS011;2864;49.220;8.654;2023-05-10T07:31:35;4.57;;;2.90;;
5682;SDS011;2864;49.220;8.654;2023-05-10T07:34:01;2.77;;;2.50;;
5682;SDS011;2864;49.220;8.654;2023-05-10T07:36:27;3.30;;;2.70;;
5682;SDS011;2864;49.220;8.654;2023-05-10T07:38:53;4.27;;;2.60;;
5682;SDS011;2864;49.220;8.654;2023-05-10T07:41:19;3.70;;;2.67;;
5682;SDS011;2864;49.220;8.654;2023-05-10T07:43:46;2.87;;;2.43;;
5682;SDS011;2864;49.220;8.654;2023-05-10T07:46:12;4.90;;;2.60;;
5682;SDS011;2864;49.220;8.654;2023-05-10T07:48:38;3.73;;;2.50;;
5682;SDS011;2864;49.220;8.654;2023-05-10T07:51:04;2.60;;;2.30;;
5682;SDS011;2864;49.220;8.654;2023-05-10T07:53:32;2.60;;;2.10;;
5682;SDS011;2864;49.220;8.654;2023-05-10T07:55:58;2.53;;;2.33;;
5682;SDS011;2864;49.220;8.654;2023-05-10T07:58:24;3.67;;;2.17;;
5682;SDS011;2864;49.220;8.654;2023-05-10T08:00:50;2.20;;;2.00;;
5682;SDS011;2864;49.220;8.654;2023-05-10T08:03:16;2.07;;;1.90;;
5682;SDS011;2864;49.220;8.654;2023-05-10T08:05:42;2.10;;;1.90;;
5682;SDS011;2864;49.220;8.654;2023-05-10T08:08:08;5.63;;;1.80;;
5682;SDS011;2864;49.220;8.654;2023-05-10T08:10:34;4.20;;;2.00;;
5682;SDS011;2864;49.220;8.654;2023-05-10T08:13:00;2.83;;;1.90;;
5682;SDS011;2864;49.220;8.654;2023-05-10T08:15:26;1.93;;;1.83;;
5682;SDS011;2864;49.220;8.654;2023-05-10T08:17:52;2.23;;;1.63;;
5682;SDS011;2864;49.220;8.654;2023-05-10T08:20:18;3.17;;;1.93;;
5682;SDS011;2864;49.220;8.654;2023-05-10T08:22:47;2.57;;;1.70;;
5682;SDS011;2864;49.220;8.654;2023-05-10T08:25:13;3.40;;;1.50;;
5682;SDS011;2864;49.220;8.654;2023-05-10T08:27:39;1.80;;;1.60;;
5682;SDS011;2864;49.220;8.654;2023-05-10T08:30:05;1.80;;;1.60;;
5682;SDS011;2864;49.220;8.654;2023-05-10T08:32:31;2.60;;;1.50;;
5682;SDS011;2864;49.220;8.654;2023-05-10T08:34:57;1.80;;;1.70;;
5682;SDS011;2864;49.220;8.654;2023-05-10T08:37:23;1.57;;;1.47;;
5682;SDS011;2864;49.220;8.654;2023-05-10T08:39:49;3.00;;;1.60;;
5682;SDS011;2864;49.220;8.654;2023-05-10T08:42:16;2.30;;;1.57;;
5682;SDS011;2864;49.220;8.654;2023-05-10T08:44:45;2.33;;;1.80;;
5682;SDS011;2864;49.220;8.654;2023-05-10T08:47:13;2.37;;;1.60;;
5682;SDS011;2864;49.220;8.654;2023-05-10T08:49:42;3.23;;;1.60;;
5682;SDS011;2864;49.220;8.654;2023-05-10T08:52:09;1.60;;;1.50;;
5682;SDS011;2864;49.220;8.654;2023-05-10T08:54:37;2.23;;;1.63;;
5682;SDS011;2864;49.220;8.654;2023-05-10T08:57:04;3.73;;;1.80;;
5682;SDS011;2864;49.220;8.654;2023-05-10T08:59:30;1.77;;;1.67;;
5682;SDS011;2864;49.220;8.654;2023-05-10T09:01:59;1.40;;;1.30;;
5682;SDS011;2864;49.220;8.654;2023-05-10T09:04:26;1.50;;;1.40;;
5682;SDS011;2864;49.220;8.654;2023-05-10T09:06:52;2.07;;;1.50;;
5682;SDS011;2864;49.220;8.654;2023-05-10T09:09:18;1.60;;;1.37;;
5682;SDS011;2864;49.220;8.654;2023-05-10T09:11:45;1.90;;;1.33;;
5682;SDS011;2864;49.220;8.654;2023-05-10T09:14:11;2.03;;;1.47;;
5682;SDS011;2864;49.220;8.654;2023-05-10T09:16:38;1.73;;;1.30;;
5682;SDS011;2864;49.220;8.654;2023-05-10T09:19:04;1.73;;;1.40;;
5682;SDS011;2864;49.220;8.654;2023-05-10T09:21:32;1.53;;;1.20;;
5682;SDS011;2864;49.220;8.654;2023-05-10T09:23:58;1.23;;;1.13;;
5682;SDS011;2864;49.220;8.654;2023-05-10T09:26:28;1.93;;;1.30;;
5682;SDS011;2864;49.220;8.654;2023-05-10T09:28:55;1.93;;;1.30;;
5682;SDS011;2864;49.220;8.654;2023-05-10T09:31:21;1.13;;;1.10;;
5682;SDS011;2864;49.220;8.654;2023-05-10T09:33:48;2.10;;;1.17;;
5682;SDS011;2864;49.220;8.654;2023-05-10T09:36:14;1.50;;;1.33;;
5682;SDS011;2864;49.220;8.654;2023-05-10T09:41:17;1.67;;;1.30;;
5682;SDS011;2864;49.220;8.654;2023-05-10T09:43:43;1.30;;;1.20;;
5682;SDS011;2864;49.220;8.654;2023-05-10T09:46:09;4.53;;;1.40;;
5682;SDS011;2864;49.220;8.654;2023-05-10T09:48:39;1.43;;;1.33;;
5682;SDS011;2864;49.220;8.654;2023-05-10T09:51:07;1.67;;;1.40;;
5682;SDS011;2864;49.220;8.654;2023-05-10T09:53:33;1.30;;;1.20;;
5682;SDS011;2864;49.220;8.654;2023-05-10T09:55:58;1.40;;;1.30;;
5682;SDS011;2864;49.220;8.654;2023-05-10T09:58:24;1.40;;;1.20;;
5682;SDS011;2864;49.220;8.654;2023-05-10T10:00:51;1.30;;;1.20;;
5682;SDS011;2864;49.220;8.654;2023-05-10T10:03:18;2.60;;;1.30;;
5682;SDS011;2864;49.220;8.654;2023-05-10T10:05:44;1.63;;;1.20;;
5682;SDS011;2864;49.220;8.654;2023-05-10T10:08:11;2.60;;;1.30;;
5682;SDS011;2864;49.220;8.654;2023-05-10T10:10:37;1.30;;;1.20;;
5682;SDS011;2864;49.220;8.654;2023-05-10T10:13:05;2.00;;;1.30;;
5682;SDS011;2864;49.220;8.654;2023-05-10T10:15:31;1.47;;;1.37;;
5682;SDS011;2864;49.220;8.654;2023-05-10T10:17:58;1.47;;;1.30;;
5682;SDS011;2864;49.220;8.654;2023-05-10T10:20:26;1.30;;;1.20;;
5682;SDS011;2864;49.220;8.654;2023-05-10T10:22:53;1.40;;;1.30;;
5682;SDS011;2864;49.220;8.654;2023-05-10T10:25:19;1.33;;;1.23;;
5682;SDS011;2864;49.220;8.654;2023-05-10T10:36:10;3.00;;;1.80;;
5682;SDS011;2864;49.220;8.654;2023-05-10T10:46:58;2.10;;;1.77;;
5682;SDS011;2864;49.220;8.654;2023-05-10T10:49:25;2.20;;;1.53;;
5682;SDS011;2864;49.220;8.654;2023-05-10T10:54:52;5.43;;;1.60;;
5682;SDS011;2864;49.220;8.654;2023-05-10T10:57:18;1.90;;;1.70;;
5682;SDS011;2864;49.220;8.654;2023-05-10T10:59:46;1.70;;;1.50;;
5682;SDS011;2864;49.220;8.654;2023-05-10T11:02:46;2.00;;;1.40;;
5682;SDS011;2864;49.220;8.654;2023-05-10T11:05:40;3.20;;;1.50;;
5682;SDS011;2864;49.220;8.654;2023-05-10T11:08:06;2.27;;;1.63;;
5682;SDS011;2864;49.220;8.654;2023-05-10T11:10:32;2.07;;;1.50;;
5682;SDS011;2864;49.220;8.654;2023-05-10T11:12:59;3.47;;;1.60;;
5682;SDS011;2864;49.220;8.654;2023-05-10T11:15:32;1.67;;;1.30;;
5682;SDS011;2864;49.220;8.654;2023-05-10T11:17:59;2.87;;;1.30;;
5682;SDS011;2864;49.220;8.654;2023-05-10T11:20:28;3.47;;;1.40;;
5682;SDS011;2864;49.220;8.654;2023-05-10T11:23:13;1.80;;;1.30;;
5682;SDS011;2864;49.220;8.654;2023-05-10T11:25:44;2.50;;;1.30;;
5682;SDS011;2864;49.220;8.654;2023-05-10T11:28:13;2.30;;;1.50;;
5682;SDS011;2864;49.220;8.654;2023-05-10T11:30:40;2.83;;;1.53;;
5682;SDS011;2864;49.220;8.654;2023-05-10T11:33:06;1.50;;;1.30;;
5682;SDS011;2864;49.220;8.654;2023-05-10T11:35:39;2.87;;;1.40;;
5682;SDS011;2864;49.220;8.654;2023-05-10T11:38:09;2.90;;;1.60;;
5682;SDS011;2864;49.220;8.654;2023-05-10T11:40:35;3.63;;;1.43;;
5682;SDS011;2864;49.220;8.654;2023-05-10T11:43:03;4.57;;;1.40;;
5682;SDS011;2864;49.220;8.654;2023-05-10T11:45:31;2.13;;;1.47;;
5682;SDS011;2864;49.220;8.654;2023-05-10T11:47:58;1.60;;;1.40;;
5682;SDS011;2864;49.220;8.654;2023-05-10T11:50:24;3.77;;;1.50;;
5682;SDS011;2864;49.220;8.654;2023-05-10T11:52:54;2.13;;;1.40;;
5682;SDS011;2864;49.220;8.654;2023-05-10T11:55:21;4.23;;;1.57;;
5682;SDS011;2864;49.220;8.654;2023-05-10T11:57:52;3.53;;;1.60;;
5682;SDS011;2864;49.220;8.654;2023-05-10T12:00:19;2.57;;;1.60;;
5682;SDS011;2864;49.220;8.654;2023-05-10T12:02:45;1.73;;;1.50;;
5682;SDS011;2864;49.220;8.654;2023-05-10T12:05:11;3.67;;;1.67;;
5682;SDS011;2864;49.220;8.654;2023-05-10T12:07:37;1.77;;;1.30;;
5682;SDS011;2864;49.220;8.654;2023-05-10T12:10:08;3.37;;;1.40;;
5682;SDS011;2864;49.220;8.654;2023-05-10T12:12:44;7.83;;;1.33;;
5682;SDS011;2864;49.220;8.654;2023-05-10T12:15:19;2.80;;;1.40;;
5682;SDS011;2864;49.220;8.654;2023-05-10T12:17:45;1.40;;;1.30;;
5682;SDS011;2864;49.220;8.654;2023-05-10T12:20:15;4.73;;;1.40;;
5682;SDS011;2864;49.220;8.654;2023-05-10T12:22:51;1.47;;;1.20;;
5682;SDS011;2864;49.220;8.654;2023-05-10T12:25:21;3.43;;;1.20;;
5682;SDS011;2864;49.220;8.654;2023-05-10T12:27:54;2.73;;;1.30;;
5682;SDS011;2864;49.220;8.654;2023-05-10T12:30:24;2.00;;;1.13;;
5682;SDS011;2864;49.220;8.654;2023-05-10T12:33:00;2.13;;;1.40;;
5682;SDS011;2864;49.220;8.654;2023-05-10T12:35:29;3.67;;;1.50;;
5682;SDS011;2864;49.220;8.654;2023-05-10T12:37:56;5.17;;;1.60;;
5682;SDS011;2864;49.220;8.654;2023-05-10T12:40:22;1.60;;;1.50;;
5682;SDS011;2864;49.220;8.654;2023-05-10T12:42:51;3.17;;;1.93;;
5682;SDS011;2864;49.220;8.654;2023-05-10T12:45:17;3.40;;;1.60;;
5682;SDS011;2864;49.220;8.654;2023-05-10T12:47:43;2.47;;;2.03;;
5682;SDS011;2864;49.220;8.654;2023-05-10T12:50:10;3.50;;;1.47;;
5682;SDS011;2864;49.220;8.654;2023-05-10T12:52:36;2.33;;;1.40;;
5682;SDS011;2864;49.220;8.654;2023-05-10T12:55:02;2.20;;;1.23;;
5682;SDS011;2864;49.220;8.654;2023-05-10T12:57:31;1.97;;;1.30;;
5682;SDS011;2864;49.220;8.654;2023-05-10T12:59:58;2.07;;;1.33;;
5682;SDS011;2864;49.220;8.654;2023-05-10T13:02:24;3.60;;;1.40;;
5682;SDS011;2864;49.220;8.654;2023-05-10T13:04:50;3.97;;;1.50;;
5682;SDS011;2864;49.220;8.654;2023-05-10T13:07:16;4.87;;;1.43;;
5682;SDS011;2864;49.220;8.654;2023-05-10T13:09:42;2.23;;;1.47;;
5682;SDS011;2864;49.220;8.654;2023-05-10T13:12:08;3.93;;;1.40;;
5682;SDS011;2864;49.220;8.654;2023-05-10T13:14:34;4.23;;;1.37;;
5682;SDS011;2864;49.220;8.654;2023-05-10T13:17:00;3.40;;;1.57;;
5682;SDS011;2864;49.220;8.654;2023-05-10T13:19:26;4.63;;;1.50;;
5682;SDS011;2864;49.220;8.654;2023-05-10T13:21:52;2.50;;;1.60;;
5682;SDS011;2864;49.220;8.654;2023-05-10T13:24:18;3.10;;;1.57;;
5682;SDS011;2864;49.220;8.654;2023-05-10T13:26:44;4.17;;;1.50;;
5682;SDS011;2864;49.220;8.654;2023-05-10T13:29:10;1.93;;;1.40;;
5682;SDS011;2864;49.220;8.654;2023-05-10T13:31:36;2.63;;;1.50;;
5682;SDS011;2864;49.220;8.654;2023-05-10T13:34:02;2.97;;;1.60;;
5682;SDS011;2864;49.220;8.654;2023-05-10T13:36:28;5.13;;;1.50;;
5682;SDS011;2864;49.220;8.654;2023-05-10T13:38:54;1.93;;;1.33;;
5682;SDS011;2864;49.220;8.654;2023-05-10T13:41:20;2.07;;;1.30;;
5682;SDS011;2864;49.220;8.654;2023-05-10T13:43:46;3.10;;;1.43;;
5682;SDS011;2864;49.220;8.654;2023-05-10T13:46:13;1.40;;;1.30;;
5682;SDS011;2864;49.220;8.654;2023-05-10T13:48:40;5.80;;;1.60;;
5682;SDS011;2864;49.220;8.654;2023-05-10T13:51:06;3.83;;;1.33;;
5682;SDS011;2864;49.220;8.654;2023-05-10T13:53:32;3.17;;;1.37;;
5682;SDS011;2864;49.220;8.654;2023-05-10T13:55:58;1.77;;;1.30;;
5682;SDS011;2864;49.220;8.654;2023-05-10T13:58:24;1.37;;;1.27;;
5682;SDS011;2864;49.220;8.654;2023-05-10T14:00:50;2.90;;;1.33;;
5682;SDS011;2864;49.220;8.654;2023-05-10T14:03:16;1.30;;;1.20;;
5682;SDS011;2864;49.220;8.654;2023-05-10T14:05:42;3.13;;;1.40;;
5682;SDS011;2864;49.220;8.654;2023-05-10T14:08:10;4.23;;;1.33;;
5682;SDS011;2864;49.220;8.654;2023-05-10T14:10:41;2.30;;;1.23;;
5682;SDS011;2864;49.220;8.654;2023-05-10T14:13:07;2.97;;;1.20;;
5682;SDS011;2864;49.220;8.654;2023-05-10T14:15:33;1.73;;;1.50;;
5682;SDS011;2864;49.220;8.654;2023-05-10T14:17:59;1.77;;;1.20;;
5682;SDS011;2864;49.220;8.654;2023-05-10T14:20:25;1.57;;;1.10;;
5682;SDS011;2864;49.220;8.654;2023-05-10T14:22:51;2.53;;;1.27;;
5682;SDS011;2864;49.220;8.654;2023-05-10T14:25:17;1.60;;;1.20;;
5682;SDS011;2864;49.220;8.654;2023-05-10T14:27:43;2.30;;;1.10;;
5682;SDS011;2864;49.220;8.654;2023-05-10T14:30:09;1.53;;;1.30;;
5682;SDS011;2864;49.220;8.654;2023-05-10T14:32:35;2.37;;;1.20;;
5682;SDS011;2864;49.220;8.654;2023-05-10T14:35:02;3.03;;;1.20;;
5682;SDS011;2864;49.220;8.654;2023-05-10T14:37:28;1.10;;;1.00;;
5682;SDS011;2864;49.220;8.654;2023-05-10T14:39:54;2.47;;;1.30;;
5682;SDS011;2864;49.220;8.654;2023-05-10T14:42:20;1.37;;;1.13;;
5682;SDS011;2864;49.220;8.654;2023-05-10T14:44:46;3.20;;;1.20;;
5682;SDS011;2864;49.220;8.654;2023-05-10T14:47:12;1.63;;;1.30;;
5682;SDS011;2864;49.220;8.654;2023-05-10T14:49:38;1.90;;;1.10;;
5682;SDS011;2864;49.220;8.654;2023-05-10T14:52:04;3.60;;;1.30;;
5682;SDS011;2864;49.220;8.654;2023-05-10T14:54:30;1.43;;;1.20;;
5682;SDS011;2864;49.220;8.654;2023-05-10T14:56:58;1.40;;;1.10;;
5682;SDS011;2864;49.220;8.654;2023-05-10T14:59:25;3.70;;;1.10;;
5682;SDS011;2864;49.220;8.654;2023-05-10T15:01:51;1.33;;;1.20;;
5682;SDS011;2864;49.220;8.654;2023-05-10T15:04:17;1.90;;;1.43;;
5682;SDS011;2864;49.220;8.654;2023-05-10T15:06:43;2.10;;;1.20;;
5682;SDS011;2864;49.220;8.654;2023-05-10T15:09:10;2.53;;;1.20;;
5682;SDS011;2864;49.220;8.654;2023-05-10T15:11:36;1.50;;;1.13;;
5682;SDS011;2864;49.220;8.654;2023-05-10T15:14:02;2.50;;;1.10;;
5682;SDS011;2864;49.220;8.654;2023-05-10T15:16:28;3.73;;;1.60;;
5682;SDS011;2864;49.220;8.654;2023-05-10T15:18:54;1.27;;;1.17;;
5682;SDS011;2864;49.220;8.654;2023-05-10T15:21:20;2.17;;;1.00;;
5682;SDS011;2864;49.220;8.654;2023-05-10T15:23:46;2.80;;;1.27;;
5682;SDS011;2864;49.220;8.654;2023-05-10T15:26:13;1.20;;;1.10;;
5682;SDS011;2864;49.220;8.654;2023-05-10T15:28:39;3.03;;;1.37;;
5682;SDS011;2864;49.220;8.654;2023-05-10T15:31:05;1.33;;;1.10;;
5682;SDS011;2864;49.220;8.654;2023-05-10T15:33:31;2.70;;;1.30;;
5682;SDS011;2864;49.220;8.654;2023-05-10T15:36:00;1.33;;;1.10;;
5682;SDS011;2864;49.220;8.654;2023-05-10T15:38:26;2.53;;;1.27;;
5682;SDS011;2864;49.220;8.654;2023-05-10T15:40:55;1.47;;;1.37;;
5682;SDS011;2864;49.220;8.654;2023-05-10T15:43:22;3.87;;;1.37;;
5682;SDS011;2864;49.220;8.654;2023-05-10T15:45:48;2.33;;;1.10;;
5682;SDS011;2864;49.220;8.654;2023-05-10T15:48:15;2.57;;;1.20;;
5682;SDS011;2864;49.220;8.654;2023-05-10T15:50:41;1.10;;;1.00;;
5682;SDS011;2864;49.220;8.654;2023-05-10T15:53:07;2.73;;;1.17;;
5682;SDS011;2864;49.220;8.654;2023-05-10T15:55:33;1.93;;;1.20;;
5682;SDS011;2864;49.220;8.654;2023-05-10T15:57:59;2.30;;;1.03;;
5682;SDS011;2864;49.220;8.654;2023-05-10T16:00:25;2.40;;;1.20;;